createdAt,value
2018-07-14T00:00:18.476Z,18.53
2018-07-14T00:01:18.400Z,18.58
2018-07-14T00:02:18.329Z,18.59
2018-07-14T00:03:18.251Z,18.58
2018-07-14T00:04:18.186Z,18.59
2018-07-14T00:05:18.104Z,18.58
2018-07-14T00:06:18.033Z,18.45
2018-07-14T00:07:17.955Z,18.33
2018-07-14T00:08:17.880Z,18.44
2018-07-14T00:09:17.807Z,18.35
2018-07-14T00:10:17.731Z,18.34
2018-07-14T00:11:17.657Z,18.35
2018-07-14T00:12:17.582Z,18.38
2018-07-14T00:13:17.514Z,18.40
2018-07-14T00:14:17.434Z,18.45
2018-07-14T00:15:17.364Z,18.41
2018-07-14T00:16:17.283Z,18.41
2018-07-14T00:17:17.209Z,18.34
2018-07-14T00:18:17.160Z,18.31
2018-07-14T00:19:17.062Z,18.37
2018-07-14T00:20:16.991Z,18.26
2018-07-14T00:21:16.919Z,18.31
2018-07-14T00:22:16.854Z,18.25
2018-07-14T00:23:16.768Z,18.29
2018-07-14T00:24:16.707Z,18.18
2018-07-14T00:25:16.669Z,18.20
2018-07-14T00:26:16.557Z,18.25
2018-07-14T00:27:16.472Z,18.16
2018-07-14T00:28:16.398Z,18.15
2018-07-14T00:29:16.317Z,18.26
2018-07-14T00:30:16.242Z,18.26
2018-07-14T00:31:16.166Z,18.29
2018-07-14T00:32:16.119Z,18.23
2018-07-14T00:33:16.019Z,18.23
2018-07-14T00:34:15.945Z,18.25
2018-07-14T00:35:15.878Z,18.23
2018-07-14T00:36:15.795Z,18.29
2018-07-14T00:37:15.720Z,18.28
2018-07-14T00:38:15.646Z,18.38
2018-07-14T00:39:15.571Z,18.31
2018-07-14T00:40:15.494Z,18.33
2018-07-14T00:41:15.421Z,18.22
2018-07-14T00:42:15.350Z,18.25
2018-07-14T00:43:15.272Z,18.26
2018-07-14T00:44:15.201Z,18.22
2018-07-14T00:45:15.127Z,18.25
2018-07-14T00:46:15.047Z,18.15
2018-07-14T00:47:14.983Z,18.19
2018-07-14T00:48:14.898Z,18.20
2018-07-14T00:49:14.825Z,18.19
2018-07-14T00:50:14.754Z,18.11
2018-07-14T00:51:14.682Z,18.08
2018-07-14T00:52:14.610Z,18.16
2018-07-14T00:53:14.526Z,18.05
2018-07-14T00:54:14.452Z,18.01
2018-07-14T00:55:14.381Z,18.04
2018-07-14T00:56:14.309Z,18.04
2018-07-14T00:57:14.233Z,18.04
2018-07-14T00:58:14.158Z,17.95
2018-07-14T00:59:14.080Z,17.95
2018-07-14T01:00:14.005Z,17.95
2018-07-14T01:01:13.948Z,17.86
2018-07-14T01:02:13.860Z,17.83
2018-07-14T01:03:13.779Z,17.82
2018-07-14T01:04:13.710Z,17.74
2018-07-14T01:05:13.665Z,17.72
2018-07-14T01:06:13.569Z,17.72
2018-07-14T01:07:13.486Z,17.72
2018-07-14T01:08:13.406Z,17.70
2018-07-14T01:09:13.335Z,17.72
2018-07-14T01:10:13.260Z,17.76
2018-07-14T01:11:13.189Z,17.74
2018-07-14T01:12:13.107Z,17.68
2018-07-14T01:13:13.032Z,17.67
2018-07-14T01:14:12.957Z,17.59
2018-07-14T01:15:12.882Z,17.51
2018-07-14T01:16:12.806Z,17.54
2018-07-14T01:17:12.733Z,17.59
2018-07-14T01:18:12.662Z,17.48
2018-07-14T01:19:12.583Z,17.57
2018-07-14T01:20:12.508Z,17.49
2018-07-14T01:21:12.431Z,17.42
2018-07-14T01:22:12.359Z,17.41
2018-07-14T01:23:12.284Z,17.56
2018-07-14T01:24:12.215Z,17.54
2018-07-14T01:25:12.133Z,17.44
2018-07-14T01:26:12.080Z,17.59
2018-07-14T01:27:11.982Z,17.59
2018-07-14T01:28:11.906Z,17.52
2018-07-14T01:29:11.833Z,17.57
2018-07-14T01:30:11.761Z,17.51
2018-07-14T01:31:11.697Z,17.52
2018-07-14T01:32:11.606Z,17.57
2018-07-14T01:33:11.552Z,17.54
2018-07-14T01:34:11.459Z,17.52
2018-07-14T01:35:11.385Z,17.54
2018-07-14T01:36:11.311Z,17.49
2018-07-14T01:37:11.276Z,17.56
2018-07-14T01:38:11.155Z,17.52
2018-07-14T01:39:11.089Z,17.54
2018-07-14T01:40:11.011Z,17.54
2018-07-14T01:41:10.930Z,17.54
2018-07-14T01:42:10.861Z,17.52
2018-07-14T01:43:10.784Z,17.60
2018-07-14T01:44:10.712Z,17.51
2018-07-14T01:45:10.632Z,17.52
2018-07-14T01:46:10.563Z,17.51
2018-07-14T01:47:10.480Z,17.52
2018-07-14T01:48:10.407Z,17.56
2018-07-14T01:49:10.333Z,17.59
2018-07-14T01:50:10.253Z,17.51
2018-07-14T01:51:10.188Z,17.63
2018-07-14T01:52:10.110Z,17.56
2018-07-14T01:53:10.029Z,17.59
2018-07-14T01:54:09.952Z,17.63
2018-07-14T01:55:09.884Z,17.60
2018-07-14T01:56:09.818Z,17.54
2018-07-14T01:57:09.732Z,17.59
2018-07-14T01:58:09.655Z,17.54
2018-07-14T01:59:09.599Z,17.42
2018-07-14T02:00:09.503Z,17.36
2018-07-14T02:01:09.452Z,17.38
2018-07-14T02:02:09.354Z,17.42
2018-07-14T02:03:09.279Z,17.38
2018-07-14T02:04:09.202Z,17.31
2018-07-14T02:05:09.128Z,17.26
2018-07-14T02:06:09.053Z,17.24
2018-07-14T02:07:08.977Z,17.16
2018-07-14T02:08:08.901Z,17.19
2018-07-14T02:09:08.838Z,17.16
2018-07-14T02:10:08.752Z,17.23
2018-07-14T02:11:08.676Z,17.26
2018-07-14T02:12:08.605Z,17.20
2018-07-14T02:13:08.530Z,17.27
2018-07-14T02:14:08.452Z,17.15
2018-07-14T02:15:08.381Z,17.15
2018-07-14T02:16:08.316Z,17.11
2018-07-14T02:17:08.225Z,17.08
2018-07-14T02:18:08.152Z,17.02
2018-07-14T02:19:08.073Z,17.02
2018-07-14T02:20:08.000Z,16.96
2018-07-14T02:21:07.925Z,16.97
2018-07-14T02:22:07.848Z,16.97
2018-07-14T02:23:07.776Z,17.01
2018-07-14T02:24:07.697Z,16.97
2018-07-14T02:25:07.625Z,16.99
2018-07-14T02:26:07.556Z,17.02
2018-07-14T02:27:07.473Z,17.01
2018-07-14T02:28:07.400Z,16.96
2018-07-14T02:29:07.325Z,16.97
2018-07-14T02:30:07.243Z,16.99
2018-07-14T02:31:07.182Z,16.97
2018-07-14T02:32:07.094Z,16.91
2018-07-14T02:33:07.018Z,16.96
2018-07-14T02:34:06.944Z,17.01
2018-07-14T02:35:06.872Z,16.96
2018-07-14T02:36:06.793Z,16.87
2018-07-14T02:37:06.721Z,16.86
2018-07-14T02:38:06.642Z,16.86
2018-07-14T02:39:06.567Z,16.83
2018-07-14T02:40:06.495Z,16.81
2018-07-14T02:41:06.418Z,16.83
2018-07-14T02:42:06.338Z,16.84
2018-07-14T02:43:06.264Z,16.90
2018-07-14T02:44:06.190Z,16.90
2018-07-14T02:45:06.154Z,16.94
2018-07-14T02:46:06.039Z,16.94
2018-07-14T02:47:05.966Z,16.97
2018-07-14T02:48:05.894Z,16.96
2018-07-14T02:49:05.811Z,16.96
2018-07-14T02:50:05.738Z,16.99
2018-07-14T02:51:05.666Z,16.94
2018-07-14T02:52:05.585Z,16.90
2018-07-14T02:53:05.515Z,16.83
2018-07-14T02:54:05.437Z,16.87
2018-07-14T02:55:05.361Z,16.89
2018-07-14T02:56:05.286Z,16.84
2018-07-14T02:57:05.211Z,16.86
2018-07-14T02:58:05.131Z,16.81
2018-07-14T02:59:05.066Z,16.84
2018-07-14T03:00:04.984Z,16.81
2018-07-14T03:01:04.933Z,16.81
2018-07-14T03:02:04.844Z,16.79
2018-07-14T03:03:04.901Z,16.72
2018-07-14T03:04:04.677Z,16.65
2018-07-14T03:05:04.603Z,16.64
2018-07-14T03:06:04.546Z,16.64
2018-07-14T03:07:04.453Z,16.60
2018-07-14T03:08:04.378Z,16.58
2018-07-14T03:09:04.304Z,16.58
2018-07-14T03:10:04.225Z,16.65
2018-07-14T03:11:04.150Z,16.64
2018-07-14T03:12:04.083Z,16.64
2018-07-14T03:13:03.998Z,16.60
2018-07-14T03:14:03.922Z,16.64
2018-07-14T03:15:03.846Z,16.64
2018-07-14T03:16:03.788Z,16.60
2018-07-14T03:17:03.697Z,16.66
2018-07-14T03:18:03.620Z,16.61
2018-07-14T03:19:03.547Z,16.60
2018-07-14T03:20:03.468Z,16.64
2018-07-14T03:21:03.398Z,16.60
2018-07-14T03:22:03.321Z,16.60
2018-07-14T03:23:03.241Z,16.68
2018-07-14T03:24:03.166Z,16.58
2018-07-14T03:25:03.091Z,16.65
2018-07-14T03:26:03.014Z,16.64
2018-07-14T03:27:02.952Z,16.61
2018-07-14T03:28:02.863Z,16.64
2018-07-14T03:29:02.788Z,16.66
2018-07-14T03:30:02.716Z,16.72
2018-07-14T03:31:02.641Z,16.74
2018-07-14T03:32:02.560Z,16.72
2018-07-14T03:33:02.488Z,16.71
2018-07-14T03:34:02.415Z,16.74
2018-07-14T03:35:02.340Z,16.76
2018-07-14T03:36:02.260Z,16.79
2018-07-14T03:37:02.202Z,16.83
2018-07-14T03:38:02.119Z,16.79
2018-07-14T03:39:02.038Z,16.83
2018-07-14T03:40:01.958Z,16.81
2018-07-14T03:41:01.888Z,16.86
2018-07-14T03:42:01.821Z,16.90
2018-07-14T03:43:01.866Z,16.89
2018-07-14T03:44:01.654Z,16.90
2018-07-14T03:45:01.577Z,16.93
2018-07-14T03:46:01.502Z,16.84
2018-07-14T03:47:01.458Z,16.90
2018-07-14T03:48:01.365Z,16.84
2018-07-14T03:49:01.276Z,16.72
2018-07-14T03:50:01.198Z,16.61
2018-07-14T03:51:01.131Z,16.58
2018-07-14T03:52:01.069Z,16.65
2018-07-14T03:53:00.976Z,16.60
2018-07-14T03:54:00.896Z,16.56
2018-07-14T03:55:00.821Z,16.58
2018-07-14T03:56:00.746Z,16.56
2018-07-14T03:57:00.701Z,16.57
2018-07-14T03:58:00.602Z,16.57
2018-07-14T03:59:00.521Z,16.56
2018-07-14T04:00:00.442Z,16.56
2018-07-14T04:01:00.373Z,16.56
2018-07-14T04:02:00.295Z,16.46
2018-07-14T04:03:00.216Z,16.50
2018-07-14T04:04:00.140Z,16.46
2018-07-14T04:05:00.064Z,16.46
2018-07-14T04:05:59.988Z,16.43
2018-07-14T04:06:59.916Z,16.50
2018-07-14T04:07:59.838Z,16.46
2018-07-14T04:08:59.761Z,16.39
2018-07-14T04:09:59.685Z,16.38
2018-07-14T04:10:59.611Z,16.32
2018-07-14T04:11:59.534Z,16.36
2018-07-14T04:12:59.465Z,16.21
2018-07-14T04:13:59.382Z,16.39
2018-07-14T04:14:59.309Z,16.39
2018-07-14T04:15:59.230Z,16.46
2018-07-14T04:16:59.156Z,16.54
2018-07-14T04:17:59.079Z,16.56
2018-07-14T04:18:59.018Z,16.54
2018-07-14T04:19:58.931Z,16.54
2018-07-14T04:20:58.856Z,16.60
2018-07-14T04:21:58.777Z,16.56
2018-07-14T04:22:58.720Z,16.51
2018-07-14T04:23:58.628Z,16.54
2018-07-14T04:24:58.555Z,16.56
2018-07-14T04:25:58.475Z,16.54
2018-07-14T04:26:58.401Z,16.58
2018-07-14T04:27:58.336Z,16.65
2018-07-14T04:28:58.261Z,16.72
2018-07-14T04:29:58.168Z,16.86
2018-07-14T04:30:58.097Z,16.87
2018-07-14T04:31:58.024Z,16.94
2018-07-14T04:32:57.946Z,17.02
2018-07-14T04:33:57.880Z,16.97
2018-07-14T04:34:57.800Z,17.09
2018-07-14T04:35:57.731Z,17.20
2018-07-14T04:36:57.644Z,17.20
2018-07-14T04:37:57.566Z,17.22
2018-07-14T04:38:57.492Z,17.34
2018-07-14T04:39:57.420Z,17.29
2018-07-14T04:40:57.344Z,17.24
2018-07-14T04:41:57.270Z,17.33
2018-07-14T04:42:57.192Z,17.38
2018-07-14T04:43:57.130Z,17.41
2018-07-14T04:44:57.052Z,17.52
2018-07-14T04:45:56.978Z,17.57
2018-07-14T04:46:56.895Z,17.56
2018-07-14T04:47:56.815Z,17.64
2018-07-14T04:48:56.741Z,17.65
2018-07-14T04:49:56.664Z,17.78
2018-07-14T04:50:56.593Z,17.78
2018-07-14T04:51:56.522Z,17.83
2018-07-14T04:52:56.443Z,17.71
2018-07-14T04:53:56.366Z,17.74
2018-07-14T04:54:56.291Z,17.71
2018-07-14T04:55:56.218Z,17.76
2018-07-14T04:56:56.141Z,17.72
2018-07-14T04:57:56.071Z,17.74
2018-07-14T04:58:56.008Z,17.79
2018-07-14T04:59:55.918Z,17.78
2018-07-14T05:00:55.840Z,17.89
2018-07-14T05:01:55.766Z,17.92
2018-07-14T05:02:55.693Z,17.95
2018-07-14T05:03:55.623Z,17.92
2018-07-14T05:04:55.555Z,18.04
2018-07-14T05:05:55.466Z,18.10
2018-07-14T05:06:55.393Z,18.05
2018-07-14T05:07:55.339Z,18.04
2018-07-14T05:08:55.243Z,18.03
2018-07-14T05:09:55.221Z,18.19
2018-07-14T05:10:55.127Z,18.15
2018-07-14T05:11:55.072Z,18.26
2018-07-14T05:12:55.006Z,18.35
2018-07-14T05:13:54.943Z,18.28
2018-07-14T05:14:54.808Z,18.31
2018-07-14T05:15:54.794Z,18.29
2018-07-14T05:16:54.647Z,18.37
2018-07-14T05:17:54.604Z,18.44
2018-07-14T05:18:54.561Z,18.49
2018-07-14T05:19:54.456Z,18.50
2018-07-14T05:20:54.435Z,18.52
2018-07-14T05:21:54.297Z,18.56
2018-07-14T05:22:54.235Z,18.58
2018-07-14T05:23:54.172Z,18.60
2018-07-14T05:24:54.052Z,18.70
2018-07-14T05:25:54.021Z,18.68
2018-07-14T05:26:53.917Z,18.70
2018-07-14T05:27:53.873Z,18.77
2018-07-14T05:28:53.773Z,18.78
2018-07-14T05:29:53.681Z,18.81
2018-07-14T05:30:53.650Z,18.81
2018-07-14T05:31:53.554Z,18.83
2018-07-14T05:32:53.509Z,18.83
2018-07-14T05:33:53.382Z,18.86
2018-07-14T05:34:53.384Z,18.86
2018-07-14T05:35:53.278Z,18.88
2018-07-14T05:36:53.185Z,18.88
2018-07-14T05:37:53.117Z,18.95
2018-07-14T05:38:53.046Z,18.83
2018-07-14T05:39:52.990Z,18.90
2018-07-14T05:40:52.930Z,18.88
2018-07-14T05:41:52.854Z,18.95
2018-07-14T05:42:52.791Z,18.89
2018-07-14T05:43:52.710Z,18.90
2018-07-14T05:44:52.592Z,18.98
2018-07-14T05:45:52.555Z,18.96
2018-07-14T05:46:52.452Z,18.96
2018-07-14T05:47:52.363Z,19.04
2018-07-14T05:48:53.182Z,19.12
2018-07-14T05:49:53.179Z,19.19
2018-07-14T05:50:52.184Z,19.15
2018-07-14T05:51:52.056Z,19.21
2018-07-14T05:52:52.017Z,19.21
2018-07-14T05:53:51.915Z,19.31
2018-07-14T05:54:51.903Z,19.27
2018-07-14T05:55:52.662Z,19.33
2018-07-14T05:56:51.749Z,19.45
2018-07-14T05:57:51.641Z,19.41
2018-07-14T05:58:51.553Z,19.41
2018-07-14T05:59:51.479Z,19.49
2018-07-14T06:00:51.409Z,19.54
2018-07-14T06:01:51.376Z,19.55
2018-07-14T06:02:51.250Z,19.62
2018-07-14T06:03:51.221Z,19.62
2018-07-14T06:04:51.122Z,19.67
2018-07-14T06:05:51.056Z,19.71
2018-07-14T06:06:50.975Z,19.82
2018-07-14T06:07:50.951Z,19.74
2018-07-14T06:08:50.849Z,19.73
2018-07-14T06:09:50.750Z,19.76
2018-07-14T06:10:50.719Z,19.86
2018-07-14T06:11:50.630Z,19.91
2018-07-14T06:12:50.505Z,19.94
2018-07-14T06:13:50.426Z,19.94
2018-07-14T06:14:50.377Z,19.95
2018-07-14T06:15:50.280Z,19.99
2018-07-14T06:16:50.251Z,19.95
2018-07-14T06:17:50.136Z,20.04
2018-07-14T06:18:50.065Z,20.07
2018-07-14T06:19:50.050Z,20.09
2018-07-14T06:20:49.977Z,20.10
2018-07-14T06:21:49.904Z,20.18
2018-07-14T06:22:49.809Z,20.25
2018-07-14T06:23:49.762Z,20.22
2018-07-14T06:24:49.678Z,20.18
2018-07-14T06:25:50.136Z,20.26
2018-07-14T06:26:51.164Z,20.26
2018-07-14T06:27:49.438Z,20.32
2018-07-14T06:28:49.391Z,20.36
2018-07-14T06:29:49.260Z,20.39
2018-07-14T06:30:50.178Z,20.44
2018-07-14T06:31:49.171Z,20.44
2018-07-14T06:32:49.105Z,20.44
2018-07-14T06:33:49.019Z,20.50
2018-07-14T06:34:48.933Z,20.62
2018-07-14T06:35:48.877Z,20.63
2018-07-14T06:36:48.804Z,20.70
2018-07-14T06:37:48.738Z,20.75
2018-07-14T06:38:48.618Z,20.70
2018-07-14T06:39:48.654Z,20.80
2018-07-14T06:40:48.509Z,20.77
2018-07-14T06:41:48.391Z,20.88
2018-07-14T06:42:48.307Z,20.95
2018-07-14T06:43:48.296Z,21.00
2018-07-14T06:44:48.305Z,21.14
2018-07-14T06:45:48.143Z,21.15
2018-07-14T06:46:48.088Z,21.18
2018-07-14T06:47:48.000Z,21.24
2018-07-14T06:48:48.707Z,21.37
2018-07-14T06:49:47.873Z,21.48
2018-07-14T06:50:47.783Z,21.50
2018-07-14T06:51:48.696Z,21.57
2018-07-14T06:52:47.645Z,21.58
2018-07-14T06:53:47.508Z,21.54
2018-07-14T06:54:47.467Z,21.50
2018-07-14T06:55:47.364Z,21.54
2018-07-14T06:56:47.296Z,21.58
2018-07-14T06:57:47.223Z,21.54
2018-07-14T06:58:47.152Z,21.61
2018-07-14T06:59:47.080Z,21.58
2018-07-14T07:00:47.002Z,21.57
2018-07-14T07:01:46.931Z,21.54
2018-07-14T07:02:46.859Z,21.57
2018-07-14T07:03:46.800Z,21.54
2018-07-14T07:04:46.714Z,21.51
2018-07-14T07:05:46.643Z,21.57
2018-07-14T07:06:46.571Z,21.51
2018-07-14T07:07:46.502Z,21.54
2018-07-14T07:08:46.440Z,21.61
2018-07-14T07:09:46.354Z,21.64
2018-07-14T07:10:46.282Z,21.62
2018-07-14T07:11:46.213Z,21.64
2018-07-14T07:12:46.138Z,21.62
2018-07-14T07:13:46.128Z,21.73
2018-07-14T07:14:45.995Z,21.73
2018-07-14T07:15:45.922Z,21.70
2018-07-14T07:16:45.863Z,21.69
2018-07-14T07:17:45.781Z,21.72
2018-07-14T07:18:45.708Z,21.75
2018-07-14T07:19:45.647Z,21.83
2018-07-14T07:20:45.564Z,21.88
2018-07-14T07:21:45.493Z,21.85
2018-07-14T07:22:45.416Z,21.88
2018-07-14T07:23:45.346Z,21.92
2018-07-14T07:24:45.276Z,21.93
2018-07-14T07:25:45.202Z,22.00
2018-07-14T07:26:45.138Z,21.96
2018-07-14T07:27:45.095Z,22.10
2018-07-14T07:28:45.055Z,22.11
2018-07-14T07:29:44.920Z,22.11
2018-07-14T07:30:44.844Z,22.13
2018-07-14T07:31:44.772Z,22.18
2018-07-14T07:32:44.701Z,22.18
2018-07-14T07:33:44.629Z,22.20
2018-07-14T07:34:44.578Z,22.14
2018-07-14T07:35:44.485Z,22.28
2018-07-14T07:36:44.437Z,22.32
2018-07-14T07:37:44.341Z,22.32
2018-07-14T07:38:44.268Z,22.35
2018-07-14T07:39:44.199Z,22.41
2018-07-14T07:40:44.125Z,22.39
2018-07-14T07:41:44.053Z,22.36
2018-07-14T07:42:43.997Z,22.50
2018-07-14T07:43:43.909Z,22.59
2018-07-14T07:44:43.836Z,22.59
2018-07-14T07:45:43.768Z,22.63
2018-07-14T07:46:43.696Z,22.65
2018-07-14T07:47:43.622Z,22.69
2018-07-14T07:48:43.552Z,22.73
2018-07-14T07:49:43.480Z,22.81
2018-07-14T07:50:43.412Z,22.76
2018-07-14T07:51:43.336Z,22.81
2018-07-14T07:52:43.271Z,22.84
2018-07-14T07:53:43.193Z,22.93
2018-07-14T07:54:43.123Z,22.98
2018-07-14T07:55:43.053Z,23.09
2018-07-14T07:56:42.977Z,23.00
2018-07-14T07:57:42.906Z,23.17
2018-07-14T07:58:42.844Z,23.18
2018-07-14T07:59:42.775Z,23.32
2018-07-14T08:00:42.695Z,23.31
2018-07-14T08:01:42.623Z,23.43
2018-07-14T08:02:42.551Z,23.43
2018-07-14T08:03:42.479Z,23.50
2018-07-14T08:04:42.409Z,23.51
2018-07-14T08:05:42.350Z,23.55
2018-07-14T08:06:42.280Z,23.55
2018-07-14T08:07:42.202Z,23.51
2018-07-14T08:08:42.163Z,23.51
2018-07-14T08:09:42.054Z,23.62
2018-07-14T08:10:41.990Z,23.66
2018-07-14T08:11:41.915Z,23.69
2018-07-14T08:12:41.844Z,23.73
2018-07-14T08:13:41.782Z,23.74
2018-07-14T08:14:41.703Z,23.76
2018-07-14T08:15:41.654Z,23.86
2018-07-14T08:16:41.569Z,23.77
2018-07-14T08:17:41.489Z,23.84
2018-07-14T08:18:41.422Z,23.81
2018-07-14T08:19:41.352Z,23.88
2018-07-14T08:20:41.291Z,23.88
2018-07-14T08:21:41.207Z,23.92
2018-07-14T08:22:41.144Z,23.99
2018-07-14T08:23:41.067Z,24.02
2018-07-14T08:24:40.997Z,24.01
2018-07-14T08:25:40.924Z,24.01
2018-07-14T08:26:40.857Z,24.03
2018-07-14T08:27:40.788Z,24.18
2018-07-14T08:28:40.724Z,24.23
2018-07-14T08:29:40.643Z,24.26
2018-07-14T08:30:40.579Z,24.36
2018-07-14T08:31:40.590Z,24.29
2018-07-14T08:32:40.489Z,24.40
2018-07-14T08:33:40.468Z,24.43
2018-07-14T08:34:40.348Z,24.42
2018-07-14T08:35:40.281Z,24.50
2018-07-14T08:36:40.159Z,24.50
2018-07-14T08:37:40.155Z,24.58
2018-07-14T08:38:40.079Z,24.54
2018-07-14T08:39:40.006Z,24.54
2018-07-14T08:40:39.946Z,24.54
2018-07-14T08:41:39.851Z,24.54
2018-07-14T08:42:39.812Z,24.57
2018-07-14T08:43:39.745Z,24.53
2018-07-14T08:44:39.669Z,24.66
2018-07-14T08:45:39.649Z,24.58
2018-07-14T08:46:40.249Z,24.66
2018-07-14T08:47:39.463Z,24.69
2018-07-14T08:48:39.385Z,24.69
2018-07-14T08:49:39.244Z,24.69
2018-07-14T08:50:39.176Z,24.70
2018-07-14T08:51:39.147Z,24.74
2018-07-14T08:52:39.035Z,24.70
2018-07-14T08:53:38.971Z,24.73
2018-07-14T08:54:38.895Z,24.73
2018-07-14T08:55:38.837Z,24.86
2018-07-14T08:56:38.757Z,24.74
2018-07-14T08:57:38.690Z,24.81
2018-07-14T08:58:38.617Z,24.86
2018-07-14T08:59:38.546Z,24.93
2018-07-14T09:00:38.480Z,24.91
2018-07-14T09:01:38.406Z,24.89
2018-07-14T09:02:38.338Z,24.96
2018-07-14T09:03:38.318Z,24.91
2018-07-14T09:04:38.196Z,24.92
2018-07-14T09:05:38.129Z,24.95
2018-07-14T09:06:38.057Z,24.96
2018-07-14T09:07:37.993Z,24.95
2018-07-14T09:08:37.927Z,24.96
2018-07-14T09:09:37.847Z,24.96
2018-07-14T09:10:37.783Z,25.10
2018-07-14T09:11:37.726Z,25.04
2018-07-14T09:12:37.643Z,25.03
2018-07-14T09:13:37.571Z,25.03
2018-07-14T09:14:37.501Z,25.11
2018-07-14T09:15:37.451Z,25.10
2018-07-14T09:16:37.361Z,25.21
2018-07-14T09:17:37.292Z,25.18
2018-07-14T09:18:37.223Z,25.18
2018-07-14T09:19:37.151Z,25.16
2018-07-14T09:20:37.082Z,25.17
2018-07-14T09:21:37.012Z,25.16
2018-07-14T09:22:36.943Z,25.23
2018-07-14T09:23:36.888Z,25.18
2018-07-14T09:24:36.803Z,25.21
2018-07-14T09:25:36.734Z,25.25
2018-07-14T09:26:36.664Z,25.26
2018-07-14T09:27:36.596Z,25.28
2018-07-14T09:28:36.530Z,25.35
2018-07-14T09:29:36.453Z,25.35
2018-07-14T09:30:36.386Z,25.36
2018-07-14T09:31:36.341Z,25.46
2018-07-14T09:32:36.300Z,25.40
2018-07-14T09:33:36.176Z,25.54
2018-07-14T09:34:36.107Z,25.63
2018-07-14T09:35:36.054Z,25.63
2018-07-14T09:36:35.970Z,25.68
2018-07-14T09:37:35.896Z,25.60
2018-07-14T09:38:35.829Z,25.69
2018-07-14T09:39:35.759Z,25.77
2018-07-14T09:40:35.689Z,25.77
2018-07-14T09:41:35.620Z,25.68
2018-07-14T09:42:35.548Z,25.65
2018-07-14T09:43:35.486Z,25.77
2018-07-14T09:44:35.461Z,25.77
2018-07-14T09:45:35.342Z,25.81
2018-07-14T09:46:35.272Z,25.85
2018-07-14T09:47:35.253Z,25.87
2018-07-14T09:48:35.133Z,25.85
2018-07-14T09:49:35.065Z,25.85
2018-07-14T09:50:34.995Z,25.98
2018-07-14T09:51:34.934Z,25.91
2018-07-14T09:52:34.856Z,25.98
2018-07-14T09:53:34.785Z,25.96
2018-07-14T09:54:34.724Z,26.07
2018-07-14T09:55:34.651Z,26.09
2018-07-14T09:56:34.648Z,26.07
2018-07-14T09:57:34.517Z,26.13
2018-07-14T09:58:34.466Z,26.15
2018-07-14T09:59:34.374Z,26.18
2018-07-14T10:00:34.301Z,26.25
2018-07-14T10:01:34.232Z,26.29
2018-07-14T10:02:34.188Z,26.38
2018-07-14T10:03:34.095Z,26.48
2018-07-14T10:04:34.026Z,26.52
2018-07-14T10:05:33.964Z,26.45
2018-07-14T10:06:33.886Z,26.58
2018-07-14T10:07:33.824Z,26.58
2018-07-14T10:08:33.751Z,26.65
2018-07-14T10:09:33.680Z,26.68
2018-07-14T10:10:33.619Z,26.73
2018-07-14T10:11:33.545Z,26.85
2018-07-14T10:12:33.475Z,26.84
2018-07-14T10:13:33.406Z,26.80
2018-07-14T10:14:33.338Z,26.77
2018-07-14T10:15:33.271Z,26.85
2018-07-14T10:16:33.202Z,26.83
2018-07-14T10:17:33.135Z,26.85
2018-07-14T10:18:33.069Z,26.92
2018-07-14T10:19:33.081Z,27.00
2018-07-14T10:20:32.987Z,26.97
2018-07-14T10:21:32.918Z,26.99
2018-07-14T10:22:32.851Z,27.03
2018-07-14T10:23:32.802Z,27.02
2018-07-14T10:24:32.758Z,27.00
2018-07-14T10:25:32.670Z,26.89
2018-07-14T10:26:32.574Z,27.03
2018-07-14T10:27:32.508Z,27.11
2018-07-14T10:28:32.455Z,27.15
2018-07-14T10:29:32.390Z,27.25
2018-07-14T10:30:32.291Z,27.29
2018-07-14T10:31:32.196Z,27.25
2018-07-14T10:32:32.170Z,27.35
2018-07-14T10:33:32.120Z,27.30
2018-07-14T10:34:31.973Z,27.26
2018-07-14T10:35:31.905Z,27.42
2018-07-14T10:36:31.850Z,27.37
2018-07-14T10:37:31.773Z,27.32
2018-07-14T10:38:31.720Z,27.27
2018-07-14T10:39:31.631Z,27.26
2018-07-14T10:40:31.562Z,27.17
2018-07-14T10:41:31.495Z,27.17
2018-07-14T10:42:31.508Z,27.10
2018-07-14T10:43:31.394Z,27.02
2018-07-14T10:44:31.295Z,26.92
2018-07-14T10:45:31.224Z,26.81
2018-07-14T10:46:31.155Z,26.75
2018-07-14T10:47:31.088Z,26.73
2018-07-14T10:48:31.019Z,26.62
2018-07-14T10:49:30.955Z,26.59
2018-07-14T10:50:30.881Z,26.53
2018-07-14T10:51:30.856Z,26.44
2018-07-14T10:52:30.760Z,26.33
2018-07-14T10:53:30.676Z,26.19
2018-07-14T10:54:30.612Z,26.07
2018-07-14T10:55:30.554Z,25.88
2018-07-14T10:56:30.474Z,25.75
2018-07-14T10:57:30.400Z,25.66
2018-07-14T10:58:30.354Z,25.47
2018-07-14T10:59:30.267Z,25.36
2018-07-14T11:00:30.196Z,25.36
2018-07-14T11:01:30.127Z,25.29
2018-07-14T11:02:30.086Z,25.18
2018-07-14T11:03:29.991Z,25.26
2018-07-14T11:04:29.934Z,25.18
2018-07-14T11:05:29.849Z,25.07
2018-07-14T11:06:29.786Z,24.93
2018-07-14T11:07:30.225Z,24.95
2018-07-14T11:08:29.642Z,24.95
2018-07-14T11:09:29.573Z,24.89
2018-07-14T11:10:29.503Z,24.92
2018-07-14T11:11:29.436Z,24.86
2018-07-14T11:12:29.368Z,24.84
2018-07-14T11:13:29.294Z,24.70
2018-07-14T11:14:29.225Z,24.65
2018-07-14T11:15:29.157Z,24.36
2018-07-14T11:16:29.087Z,24.29
2018-07-14T11:17:29.016Z,24.23
2018-07-14T11:18:28.950Z,24.11
2018-07-14T11:19:28.883Z,24.10
2018-07-14T11:20:28.889Z,24.06
2018-07-14T11:21:29.803Z,24.05
2018-07-14T11:22:28.741Z,24.03
2018-07-14T11:23:28.642Z,24.06
2018-07-14T11:24:28.611Z,24.08
2018-07-14T11:25:29.289Z,24.02
2018-07-14T11:26:28.449Z,23.99
2018-07-14T11:27:28.338Z,24.01
2018-07-14T11:28:28.317Z,23.87
2018-07-14T11:29:28.231Z,23.91
2018-07-14T11:30:28.812Z,23.98
2018-07-14T11:31:28.092Z,24.14
2018-07-14T11:32:28.038Z,24.24
2018-07-14T11:33:27.973Z,24.32
2018-07-14T11:34:27.878Z,24.32
2018-07-14T11:35:27.824Z,24.20
2018-07-14T11:36:27.689Z,24.24
2018-07-14T11:37:27.613Z,24.10
2018-07-14T11:38:27.542Z,24.18
2018-07-14T11:39:27.473Z,24.21
2018-07-14T11:40:27.402Z,24.20
2018-07-14T11:41:27.363Z,24.11
2018-07-14T11:42:27.262Z,24.03
2018-07-14T11:43:27.199Z,24.01
2018-07-14T11:44:27.146Z,24.05
2018-07-14T11:45:27.051Z,24.03
2018-07-14T11:46:27.002Z,23.95
2018-07-14T11:47:26.959Z,23.86
2018-07-14T11:48:26.840Z,23.92
2018-07-14T11:49:26.775Z,23.91
2018-07-14T11:50:26.704Z,23.87
2018-07-14T11:51:26.635Z,23.93
2018-07-14T11:52:26.560Z,23.88
2018-07-14T11:53:26.489Z,23.88
2018-07-14T11:54:26.421Z,23.87
2018-07-14T11:55:26.356Z,23.92
2018-07-14T11:56:26.293Z,23.88
2018-07-14T11:57:26.205Z,23.81
2018-07-14T11:58:26.140Z,23.83
2018-07-14T11:59:26.067Z,23.84
2018-07-14T12:00:26.008Z,23.76
2018-07-14T12:01:25.973Z,23.73
2018-07-14T12:02:25.863Z,23.78
2018-07-14T12:03:25.784Z,23.81
2018-07-14T12:04:25.719Z,23.81
2018-07-14T12:05:25.646Z,23.81
2018-07-14T12:06:25.574Z,23.77
2018-07-14T12:07:25.506Z,23.80
2018-07-14T12:08:25.440Z,23.88
2018-07-14T12:09:25.358Z,23.81
2018-07-14T12:10:25.293Z,23.63
2018-07-14T12:11:25.228Z,23.71
2018-07-14T12:12:25.149Z,23.66
2018-07-14T12:13:25.138Z,23.66
2018-07-14T12:14:25.024Z,23.46
2018-07-14T12:15:24.957Z,23.50
2018-07-14T12:16:24.869Z,23.48
2018-07-14T12:17:24.798Z,23.40
2018-07-14T12:18:24.728Z,23.32
2018-07-14T12:19:24.652Z,23.08
2018-07-14T12:20:24.593Z,23.03
2018-07-14T12:21:24.516Z,22.90
2018-07-14T12:22:24.455Z,22.84
2018-07-14T12:23:24.373Z,22.85
2018-07-14T12:24:24.303Z,22.96
2018-07-14T12:25:24.227Z,23.03
2018-07-14T12:26:24.163Z,23.08
2018-07-14T12:27:24.088Z,23.24
2018-07-14T12:28:24.021Z,23.20
2018-07-14T12:29:23.965Z,23.23
2018-07-14T12:30:23.943Z,23.28
2018-07-14T12:31:23.803Z,23.40
2018-07-14T12:32:23.733Z,23.48
2018-07-14T12:33:23.670Z,23.54
2018-07-14T12:34:23.594Z,23.63
2018-07-14T12:35:23.573Z,23.66
2018-07-14T12:36:23.517Z,23.77
2018-07-14T12:37:23.434Z,23.80
2018-07-14T12:38:23.349Z,23.81
2018-07-14T12:39:23.293Z,23.68
2018-07-14T12:40:23.199Z,23.62
2018-07-14T12:41:23.159Z,23.61
2018-07-14T12:42:23.101Z,23.63
2018-07-14T12:43:23.031Z,23.59
2018-07-14T12:44:22.954Z,23.61
2018-07-14T12:45:22.860Z,23.62
2018-07-14T12:46:22.792Z,23.62
2018-07-14T12:47:22.708Z,23.78
2018-07-14T12:48:22.609Z,23.84
2018-07-14T12:49:22.540Z,23.86
2018-07-14T12:52:05.089Z,23.91
2018-07-14T12:53:05.153Z,23.80